createdAt,value
2023-03-24T00:01:10.608Z,99793.19
2023-03-24T00:03:38.216Z,99852.94
2023-03-24T00:06:06.428Z,99763.59
2023-03-24T00:08:36.651Z,99842.66
2023-03-24T00:11:11.819Z,99776.41
2023-03-24T00:13:39.419Z,99834.38
2023-03-24T00:16:10.736Z,99838.41
2023-03-24T00:18:39.492Z,99837.38
2023-03-24T00:21:07.800Z,99831.22
2023-03-24T00:23:35.298Z,99747.63
2023-03-24T00:26:15.417Z,99765.66
2023-03-24T00:28:48.050Z,99828.97
2023-03-24T00:31:16.704Z,99831.72
2023-03-24T00:33:48.172Z,99820.75
2023-03-24T00:36:18.306Z,99814.22
2023-03-24T00:38:47.340Z,99815.94
2023-03-24T00:41:20.115Z,99806.69
2023-03-24T00:43:48.671Z,99790.28
2023-03-24T00:46:27.708Z,99784.81
2023-03-24T00:49:12.081Z,99796.41
2023-03-24T00:51:41.157Z,99791.59
2023-03-24T00:54:10.401Z,99787.81
2023-03-24T00:56:40.489Z,99711.50
2023-03-24T00:59:10.300Z,99780.06
2023-03-24T01:01:39.002Z,99698.69
2023-03-24T01:04:06.531Z,99766.19
2023-03-24T01:06:36.802Z,99761.75
2023-03-24T01:09:05.836Z,99756.25
2023-03-24T01:11:38.685Z,99761.63
2023-03-24T01:14:07.745Z,99712.69
2023-03-24T01:16:34.759Z,99750.28
2023-03-24T01:19:04.801Z,99666.97
2023-03-24T01:21:32.309Z,99724.47
2023-03-24T01:23:58.941Z,99692.31
2023-03-24T01:26:25.692Z,99676.13
2023-03-24T01:28:52.347Z,99752.44
2023-03-24T01:31:21.598Z,99739.72
2023-03-24T01:33:48.516Z,99738.75
2023-03-24T01:36:15.703Z,99750.56
2023-03-24T01:38:42.830Z,99727.94
2023-03-24T01:41:09.543Z,99688.72
2023-03-24T01:43:36.392Z,99656.75
2023-03-24T01:46:21.803Z,99705.78
2023-03-24T01:48:55.034Z,99723.78
2023-03-24T01:51:40.372Z,99656.13
2023-03-24T01:54:22.112Z,99723.97
2023-03-24T01:56:57.144Z,99650.44
2023-03-24T01:59:28.257Z,99702.19
2023-03-24T02:02:03.249Z,99717.75
2023-03-24T02:04:46.230Z,99714.16
2023-03-24T02:07:25.648Z,99655.47
2023-03-24T02:09:58.030Z,99634.34
2023-03-24T02:12:24.997Z,99660.09
2023-03-24T02:14:52.264Z,99707.66
2023-03-24T02:17:25.616Z,99604.69
2023-03-24T02:20:17.176Z,99648.28
2023-03-24T02:23:10.190Z,99709.53
2023-03-24T02:25:50.929Z,99703.22
2023-03-24T02:28:40.488Z,99702.56
2023-03-24T02:31:34.408Z,99663.41
2023-03-24T02:34:21.066Z,99708.44
2023-03-24T02:36:59.822Z,99714.75
2023-03-24T02:39:38.042Z,99651.53
2023-03-24T02:42:25.780Z,99696.63
2023-03-24T02:45:30.081Z,99704.81
2023-03-24T02:48:09.973Z,99700.22
2023-03-24T02:50:41.341Z,99632.84
2023-03-24T02:53:39.021Z,99695.31
2023-03-24T02:56:10.815Z,99757.03
2023-03-24T02:58:53.334Z,99716.44
2023-03-24T03:01:31.862Z,99732.94
2023-03-24T03:04:10.072Z,99786.69
2023-03-24T03:06:40.466Z,99795.00
2023-03-24T03:09:11.616Z,99687.13
2023-03-24T03:11:40.853Z,99810.00
2023-03-24T03:14:15.845Z,99735.06
2023-03-24T03:16:48.690Z,99798.47
2023-03-24T03:19:34.724Z,99808.72
2023-03-24T03:22:06.403Z,99826.19
2023-03-24T03:24:40.064Z,99823.44
2023-03-24T03:27:32.234Z,99785.75
2023-03-24T03:30:08.364Z,99837.84
2023-03-24T03:32:43.214Z,99858.25
2023-03-24T03:35:19.906Z,99863.19
2023-03-24T03:38:03.567Z,99839.38
2023-03-24T03:40:40.062Z,99890.59
2023-03-24T03:43:07.064Z,99900.84
2023-03-24T03:45:36.691Z,99897.97
2023-03-24T03:48:06.091Z,99825.72
2023-03-24T03:50:35.475Z,99895.50
2023-03-24T03:53:02.473Z,99909.88
2023-03-24T03:55:29.257Z,99895.59
2023-03-24T03:57:56.081Z,99914.72
2023-03-24T04:00:25.934Z,99915.97
2023-03-24T04:02:55.678Z,99918.38
2023-03-24T04:05:38.616Z,99919.44
2023-03-24T04:08:14.563Z,99831.97
2023-03-24T04:11:12.825Z,99933.97
2023-03-24T04:14:20.775Z,99939.25
2023-03-24T04:17:08.064Z,99950.00
2023-03-24T04:19:41.111Z,99953.41
2023-03-24T04:22:16.824Z,99957.66
2023-03-24T04:25:00.188Z,99969.06
2023-03-24T04:27:38.432Z,99910.00
2023-03-24T04:30:31.090Z,99966.88
2023-03-24T04:33:05.770Z,99982.91
2023-03-24T04:35:41.052Z,99913.56
2023-03-24T04:38:14.900Z,99982.56
2023-03-24T04:40:44.254Z,99915.97
2023-03-24T04:43:18.386Z,99925.34
2023-03-24T04:45:50.286Z,99955.88
2023-03-24T04:48:18.939Z,99989.44
2023-03-24T04:50:58.395Z,100000.00
2023-03-24T04:53:25.883Z,100004.25
2023-03-24T04:56:27.366Z,99996.09
2023-03-24T04:58:54.245Z,99948.41
2023-03-24T05:01:21.627Z,100000.38
2023-03-24T05:03:49.135Z,100005.66
2023-03-24T05:06:17.021Z,99988.25
2023-03-24T05:08:43.854Z,100014.34
2023-03-24T05:11:10.750Z,99999.84
2023-03-24T05:13:37.596Z,100010.75
2023-03-24T05:16:04.746Z,99955.66
2023-03-24T05:18:31.581Z,100030.88
2023-03-24T05:20:58.513Z,100026.06
2023-03-24T05:23:25.191Z,100027.22
2023-03-24T05:25:51.819Z,99983.91
2023-03-24T05:28:20.788Z,100034.91
2023-03-24T05:30:47.970Z,100043.94
2023-03-24T05:33:14.712Z,100039.06
2023-03-24T05:35:41.635Z,99986.66
2023-03-24T05:38:08.376Z,100063.44
2023-03-24T05:40:38.733Z,100012.56
2023-03-24T05:43:06.130Z,100055.25
2023-03-24T05:45:32.768Z,99979.84
2023-03-24T05:47:59.401Z,100026.78
2023-03-24T05:50:28.639Z,99989.75
2023-03-24T05:52:55.469Z,100051.84
2023-03-24T05:55:22.194Z,100058.47
2023-03-24T05:57:49.006Z,100017.19
2023-03-24T06:00:19.023Z,100004.06
2023-03-24T06:02:46.904Z,100061.38
2023-03-24T06:05:13.747Z,100057.31
2023-03-24T06:07:42.794Z,100075.91
2023-03-24T06:10:11.781Z,100011.94
2023-03-24T06:12:39.269Z,100017.25
2023-03-24T06:15:07.521Z,99961.81
2023-03-24T06:17:37.648Z,100078.78
2023-03-24T06:20:06.418Z,100083.56
2023-03-24T06:22:36.459Z,100015.19
2023-03-24T06:25:05.183Z,100031.03
2023-03-24T06:27:35.909Z,100068.06
2023-03-24T06:30:04.148Z,100035.66
2023-03-24T06:32:31.808Z,100024.91
2023-03-24T06:34:58.398Z,100039.41
2023-03-24T06:37:25.060Z,100063.59
2023-03-24T06:39:52.279Z,100090.03
2023-03-24T06:42:21.392Z,100036.50
2023-03-24T06:44:48.961Z,100114.41
2023-03-24T06:47:16.037Z,100037.53
2023-03-24T06:49:42.630Z,100048.44
2023-03-24T06:52:09.279Z,100052.00
2023-03-24T06:54:36.166Z,100078.59
2023-03-24T06:57:02.981Z,100033.25
2023-03-24T06:59:31.559Z,100109.97
2023-03-24T07:02:03.390Z,100119.34
2023-03-24T07:04:36.634Z,100105.34
2023-03-24T07:07:19.603Z,100120.88
2023-03-24T07:09:52.502Z,100128.00
2023-03-24T07:12:23.366Z,100138.59
2023-03-24T07:14:50.024Z,100078.72
2023-03-24T07:17:17.139Z,100140.44
2023-03-24T07:19:46.247Z,100078.53
2023-03-24T07:22:15.587Z,100086.53
2023-03-24T07:24:44.475Z,100092.31
2023-03-24T07:27:11.221Z,100079.19
2023-03-24T07:29:39.942Z,100097.41
2023-03-24T07:32:08.176Z,100098.22
2023-03-24T07:34:39.403Z,100044.88
2023-03-24T07:37:06.503Z,100156.38
2023-03-24T07:39:33.271Z,100166.25
2023-03-24T07:41:59.908Z,100149.63
2023-03-24T07:44:29.176Z,100153.66
2023-03-24T07:46:55.873Z,100164.59
2023-03-24T07:49:22.686Z,100159.16
2023-03-24T07:51:49.427Z,100082.34
2023-03-24T07:54:16.142Z,100116.81
2023-03-24T07:56:42.831Z,100174.06
2023-03-24T07:59:12.054Z,100176.53
2023-03-24T08:01:38.897Z,100182.66
2023-03-24T08:04:07.015Z,100179.84
2023-03-24T08:06:38.511Z,100177.97
2023-03-24T08:09:05.430Z,100182.38
2023-03-24T08:11:32.112Z,100114.41
2023-03-24T08:14:01.197Z,100165.88
2023-03-24T08:16:27.929Z,100175.03
2023-03-24T08:18:58.106Z,100175.91
2023-03-24T08:21:26.321Z,100108.31
2023-03-24T08:23:53.173Z,100182.44
2023-03-24T08:26:22.689Z,100182.53
2023-03-24T08:28:51.665Z,100187.75
2023-03-24T08:31:18.432Z,100118.47
2023-03-24T08:33:45.170Z,100190.06
2023-03-24T08:36:11.886Z,100198.41
2023-03-24T08:38:39.014Z,100199.06
2023-03-24T08:41:08.994Z,100200.50
2023-03-24T08:43:37.978Z,100150.75
2023-03-24T08:46:08.419Z,100208.84
2023-03-24T08:48:38.072Z,100161.88
2023-03-24T08:51:16.492Z,100220.47
2023-03-24T08:53:45.928Z,100229.56
2023-03-24T08:56:14.960Z,100220.22
2023-03-24T08:58:43.729Z,100161.13
2023-03-24T09:01:10.442Z,100232.38
2023-03-24T09:03:41.829Z,100243.13
2023-03-24T09:06:08.784Z,100244.34
2023-03-24T09:08:37.845Z,100246.06
2023-03-24T09:11:05.980Z,100187.28
2023-03-24T09:13:32.654Z,100249.16
2023-03-24T09:16:01.983Z,100247.25
2023-03-24T09:18:29.016Z,100192.56
2023-03-24T09:20:56.048Z,100204.88
2023-03-24T09:23:22.881Z,100254.09
2023-03-24T09:25:51.493Z,100253.81
2023-03-24T09:28:21.253Z,100262.16
2023-03-24T09:30:48.524Z,100249.66
2023-03-24T09:33:15.718Z,100192.38
2023-03-24T09:35:43.290Z,100250.75
2023-03-24T09:38:12.643Z,100261.41
2023-03-24T09:40:40.814Z,100266.06
2023-03-24T09:43:33.811Z,100264.81
2023-03-24T09:46:04.685Z,100265.59
2023-03-24T09:48:46.143Z,100267.13
2023-03-24T09:51:26.336Z,100263.75
2023-03-24T09:53:57.719Z,100264.88
2023-03-24T09:56:26.630Z,100252.97
2023-03-24T09:59:07.704Z,100259.63
2023-03-24T10:01:36.422Z,100261.84
2023-03-24T10:04:07.771Z,100259.31
2023-03-24T10:06:43.901Z,100211.06
2023-03-24T10:09:29.743Z,100268.09
2023-03-24T10:12:01.249Z,100238.47
2023-03-24T10:14:40.734Z,100288.16
2023-03-24T10:17:26.221Z,100302.91
2023-03-24T10:20:12.039Z,100292.88
2023-03-24T10:23:13.764Z,100291.06
2023-03-24T10:25:46.159Z,100306.75
2023-03-24T10:28:23.014Z,100192.84
2023-03-24T10:30:53.695Z,100290.91
2023-03-24T10:33:20.976Z,100299.56
2023-03-24T10:36:09.626Z,100305.75
2023-03-24T10:38:36.681Z,100233.97
2023-03-24T10:41:06.781Z,100294.59
2023-03-24T10:43:33.808Z,100228.88
2023-03-24T10:46:03.337Z,100289.88
2023-03-24T10:48:56.398Z,100295.16
2023-03-24T10:51:31.679Z,100286.09
2023-03-24T10:54:11.218Z,100288.00
2023-03-24T10:56:48.644Z,100283.94
2023-03-24T10:59:32.222Z,100287.84
2023-03-24T11:02:11.421Z,100289.13
2023-03-24T11:04:40.857Z,100288.00
2023-03-24T11:07:29.853Z,100283.53
2023-03-24T11:10:27.810Z,100230.53
2023-03-24T11:12:54.676Z,100282.25
2023-03-24T11:15:22.943Z,100282.38
2023-03-24T11:17:57.724Z,100190.16
2023-03-24T11:20:33.521Z,100227.25
2023-03-24T11:23:02.724Z,100277.09
2023-03-24T11:25:34.186Z,100270.84
2023-03-24T11:28:08.969Z,100285.22
2023-03-24T11:30:53.907Z,100246.00
2023-03-24T11:33:35.600Z,100252.19
2023-03-24T11:36:31.007Z,100238.78
2023-03-24T11:39:06.752Z,100297.03
2023-03-24T11:41:37.062Z,100232.56
2023-03-24T11:44:27.136Z,100302.31
2023-03-24T11:46:58.947Z,100298.88
2023-03-24T11:49:36.494Z,100309.81
2023-03-24T11:52:09.726Z,100243.69
2023-03-24T11:54:37.209Z,100256.91
2023-03-24T11:57:09.560Z,100309.63
2023-03-24T11:59:52.379Z,100309.97
2023-03-24T12:02:42.359Z,100335.69
2023-03-24T12:05:30.535Z,100331.94
2023-03-24T12:08:22.223Z,100302.75
2023-03-24T12:11:11.727Z,100322.03
2023-03-24T12:13:51.690Z,100329.25
2023-03-24T12:16:33.765Z,100314.97
2023-03-24T12:19:28.231Z,100313.88
2023-03-24T12:22:15.993Z,100305.03
2023-03-24T12:24:57.952Z,100300.31
2023-03-24T12:27:50.092Z,100301.09
2023-03-24T12:30:44.067Z,100294.00
2023-03-24T12:33:28.949Z,100263.09
2023-03-24T12:36:04.402Z,100277.97
2023-03-24T12:38:51.423Z,100272.66
2023-03-24T12:41:49.291Z,100276.91
2023-03-24T12:44:46.831Z,100274.94
2023-03-24T12:47:16.580Z,100272.75
2023-03-24T12:49:48.986Z,100270.38
2023-03-24T12:52:43.874Z,100215.13
2023-03-24T12:55:18.474Z,100214.00
2023-03-24T12:57:57.091Z,100208.09
2023-03-24T13:00:37.336Z,100197.47
2023-03-24T13:03:13.514Z,100199.75
2023-03-24T13:06:16.900Z,100256.81
2023-03-24T13:08:52.964Z,100255.59
2023-03-24T13:11:32.656Z,100249.41
2023-03-24T13:14:03.335Z,100252.84
2023-03-24T13:16:35.592Z,100244.53
2023-03-24T13:19:11.767Z,100253.09
2023-03-24T13:21:38.396Z,100264.47
2023-03-24T13:24:12.295Z,100281.09
2023-03-24T13:26:51.384Z,100254.16
2023-03-24T13:29:38.392Z,100286.09
2023-03-24T13:32:14.466Z,100276.34
2023-03-24T13:34:49.212Z,100212.66
2023-03-24T13:37:24.786Z,100279.38
2023-03-24T13:40:06.870Z,100282.19
2023-03-24T13:42:37.777Z,100287.75
2023-03-24T13:45:09.532Z,100286.75
2023-03-24T13:48:07.018Z,100282.66
2023-03-24T13:50:37.738Z,100274.72
2023-03-24T13:53:16.686Z,100201.94
2023-03-24T13:55:52.766Z,100208.97
2023-03-24T13:58:24.601Z,100259.28
2023-03-24T14:01:06.981Z,100256.25
2023-03-24T14:03:40.714Z,100261.34
2023-03-24T14:06:15.429Z,100209.94
2023-03-24T14:08:42.056Z,100311.34
2023-03-24T14:11:38.525Z,100306.44
2023-03-24T14:14:06.566Z,100300.84
2023-03-24T14:16:50.070Z,100263.66
2023-03-24T14:19:17.713Z,100276.63
2023-03-24T14:21:45.428Z,100265.63
2023-03-24T14:24:28.519Z,100266.78
2023-03-24T14:26:56.218Z,100215.41
2023-03-24T14:29:38.116Z,100265.72
2023-03-24T14:32:19.288Z,100219.28
2023-03-24T14:35:02.943Z,100271.28
2023-03-24T14:37:32.756Z,100267.44
2023-03-24T14:39:59.568Z,100269.97
2023-03-24T14:42:32.166Z,100273.34
2023-03-24T14:45:00.412Z,100263.03
2023-03-24T14:47:33.352Z,100257.31
2023-03-24T14:50:04.158Z,100189.59
2023-03-24T14:52:50.060Z,100258.66
2023-03-24T14:55:19.649Z,100214.41
2023-03-24T14:57:52.291Z,100253.06
2023-03-24T15:00:36.046Z,100267.84
2023-03-24T15:03:18.084Z,100201.06
2023-03-24T15:05:49.666Z,100251.84
2023-03-24T15:08:26.774Z,100249.94
2023-03-24T15:10:58.045Z,100182.91
2023-03-24T15:13:35.874Z,100247.00
2023-03-24T15:16:07.919Z,100240.22
2023-03-24T15:18:44.275Z,100238.88
2023-03-24T15:21:34.309Z,100231.63
2023-03-24T15:24:02.232Z,100173.16
2023-03-24T15:26:32.293Z,100181.63
2023-03-24T15:29:06.302Z,100164.53
2023-03-24T15:31:33.471Z,100235.31
2023-03-24T15:34:42.601Z,100231.97
2023-03-24T15:37:30.398Z,100228.03
2023-03-24T15:40:05.188Z,100165.81
2023-03-24T15:42:41.901Z,100223.09
2023-03-24T15:45:19.629Z,100228.94
2023-03-24T15:47:46.396Z,100154.09
2023-03-24T15:50:31.837Z,100165.88
2023-03-24T15:53:00.422Z,100172.31
2023-03-24T15:55:37.466Z,100220.00
2023-03-24T15:58:24.658Z,100223.66
2023-03-24T16:00:57.514Z,100157.38
2023-03-24T16:03:27.410Z,100171.22
2023-03-24T16:05:56.212Z,100203.47
2023-03-24T16:08:32.041Z,100208.25
2023-03-24T16:11:11.031Z,100201.28
2023-03-24T16:13:43.455Z,100131.31
2023-03-24T16:16:17.259Z,100189.09
2023-03-24T16:18:48.851Z,100130.72
2023-03-24T16:21:29.618Z,100180.59
2023-03-24T16:23:57.926Z,100131.69
2023-03-24T16:26:34.712Z,100151.94
2023-03-24T16:29:13.641Z,100195.56
2023-03-24T16:31:40.250Z,100126.63
2023-03-24T16:34:09.407Z,100165.28
2023-03-24T16:36:36.287Z,100102.72
2023-03-24T16:39:03.764Z,100178.06
2023-03-24T16:41:30.469Z,100134.66
2023-03-24T16:43:59.294Z,100130.09
2023-03-24T16:46:25.957Z,100187.03
2023-03-24T16:48:53.373Z,100115.00
2023-03-24T16:51:20.019Z,100140.75
2023-03-24T16:53:47.302Z,100134.84
2023-03-24T16:56:19.128Z,100185.75
2023-03-24T16:58:48.137Z,100193.50
2023-03-24T17:01:38.409Z,100186.53
2023-03-24T17:04:11.034Z,100203.22
2023-03-24T17:06:41.110Z,100186.19
2023-03-24T17:09:08.719Z,100140.75
2023-03-24T17:11:41.261Z,100144.03
2023-03-24T17:14:12.253Z,100110.44
2023-03-24T17:16:44.175Z,100206.41
2023-03-24T17:19:13.116Z,100072.97
2023-03-24T17:22:04.116Z,100188.78
2023-03-24T17:24:41.815Z,100190.50
2023-03-24T17:27:21.481Z,100196.34
2023-03-24T17:29:48.185Z,100133.75
2023-03-24T17:32:15.100Z,100179.13
2023-03-24T17:34:48.174Z,100138.25
2023-03-24T17:37:17.123Z,100135.19
2023-03-24T17:39:47.313Z,100183.16
2023-03-24T17:42:16.435Z,100150.22
2023-03-24T17:44:45.430Z,100141.53
2023-03-24T17:47:12.044Z,100135.59
2023-03-24T17:49:38.749Z,100137.78
2023-03-24T17:52:05.404Z,100133.56
2023-03-24T17:54:32.059Z,100167.31
2023-03-24T17:56:59.086Z,100201.41
2023-03-24T17:59:25.955Z,100130.81
2023-03-24T18:01:52.595Z,100148.59
2023-03-24T18:04:20.754Z,100131.19
2023-03-24T18:06:47.853Z,100128.66
2023-03-24T18:09:15.079Z,100180.09
2023-03-24T18:11:41.681Z,100124.53
2023-03-24T18:14:09.394Z,100147.25
2023-03-24T18:16:37.171Z,100207.97
2023-03-24T18:19:04.218Z,100205.94
2023-03-24T18:21:32.316Z,100152.06
2023-03-24T18:23:59.036Z,100228.13
2023-03-24T18:26:26.104Z,100227.81
2023-03-24T18:28:57.534Z,100163.31
2023-03-24T18:31:26.459Z,100217.44
2023-03-24T18:33:54.490Z,100139.47
2023-03-24T18:36:26.604Z,100216.59
2023-03-24T18:38:59.346Z,100223.13
2023-03-24T18:41:28.097Z,100213.72
2023-03-24T18:43:56.315Z,100217.81
2023-03-24T18:46:23.435Z,100218.00
2023-03-24T18:48:53.209Z,100223.84
2023-03-24T18:51:21.244Z,100169.88
2023-03-24T18:53:51.669Z,100222.47
2023-03-24T18:56:19.481Z,100213.75
2023-03-24T18:58:46.276Z,100175.50
2023-03-24T19:01:15.728Z,100231.66
2023-03-24T19:03:44.996Z,100159.47
2023-03-24T19:06:14.920Z,100232.34
2023-03-24T19:08:46.280Z,100225.34
2023-03-24T19:11:16.604Z,100226.88
2023-03-24T19:13:46.258Z,100232.84
2023-03-24T19:16:15.683Z,100212.88
2023-03-24T19:18:42.885Z,100175.66
2023-03-24T19:21:10.280Z,100204.16
2023-03-24T19:23:37.019Z,100164.72
2023-03-24T19:26:03.856Z,100168.44
2023-03-24T19:28:33.056Z,100216.44
2023-03-24T19:31:07.083Z,100169.13
2023-03-24T19:33:37.401Z,100215.72
2023-03-24T19:36:09.056Z,100215.56
2023-03-24T19:38:37.635Z,100132.88
2023-03-24T19:41:09.591Z,100217.22
2023-03-24T19:43:36.958Z,100158.63
2023-03-24T19:46:05.831Z,100223.69
2023-03-24T19:48:33.656Z,100217.50
2023-03-24T19:51:02.907Z,100210.84
2023-03-24T19:53:30.037Z,100219.38
2023-03-24T19:55:58.247Z,100147.41
2023-03-24T19:58:25.521Z,100175.44
2023-03-24T20:00:53.110Z,100215.22
2023-03-24T20:03:22.292Z,100210.97
2023-03-24T20:05:49.722Z,100136.16
2023-03-24T20:08:19.172Z,100158.81
2023-03-24T20:10:46.247Z,100180.31
2023-03-24T20:13:17.632Z,100202.19
2023-03-24T20:15:46.325Z,100200.66
2023-03-24T20:18:13.550Z,100153.81
2023-03-24T20:20:40.194Z,100181.03
2023-03-24T20:23:10.038Z,100181.38
2023-03-24T20:25:36.809Z,100131.59
2023-03-24T20:28:03.437Z,100144.25
2023-03-24T20:30:31.319Z,100168.81
2023-03-24T20:32:58.547Z,100205.88
2023-03-24T20:35:28.224Z,100212.00
2023-03-24T20:37:57.724Z,100140.59
2023-03-24T20:40:25.756Z,100206.56
2023-03-24T20:42:52.961Z,100152.88
2023-03-24T20:45:20.054Z,100196.63
2023-03-24T20:47:47.249Z,100198.53
2023-03-24T20:50:13.905Z,100199.59
2023-03-24T20:52:41.480Z,100180.47
2023-03-24T20:55:10.118Z,100191.97
2023-03-24T20:57:38.234Z,100180.19
2023-03-24T21:00:13.690Z,100095.16
2023-03-24T21:02:43.833Z,100193.53
2023-03-24T21:05:10.937Z,100179.38
2023-03-24T21:07:40.282Z,100193.34
2023-03-24T21:10:10.521Z,100194.22
2023-03-24T21:12:53.928Z,99928.50
2023-03-24T21:15:25.232Z,100185.16
2023-03-24T21:17:52.925Z,100092.72
2023-03-24T21:20:21.132Z,100135.94
2023-03-24T21:22:57.126Z,100180.66
2023-03-24T21:25:30.042Z,100193.81
2023-03-24T21:27:57.834Z,100204.91
2023-03-24T21:30:26.904Z,100149.28
2023-03-24T21:32:56.135Z,100177.09
2023-03-24T21:35:25.372Z,100198.59
2023-03-24T21:37:53.707Z,100202.38
2023-03-24T21:40:25.691Z,100189.59
2023-03-24T21:42:54.259Z,100145.13
2023-03-24T21:45:23.784Z,100183.94
2023-03-24T21:47:55.381Z,100188.84
2023-03-24T21:50:25.854Z,100209.16
2023-03-24T21:52:54.314Z,100205.75
2023-03-24T21:55:27.138Z,100207.75
2023-03-24T21:57:56.929Z,100128.19
2023-03-24T22:00:29.867Z,100194.06
2023-03-24T22:03:01.732Z,100185.50
2023-03-24T22:05:32.994Z,100141.91
2023-03-24T22:08:08.177Z,100168.19
2023-03-24T22:10:42.822Z,100208.72
2023-03-24T22:13:10.637Z,100202.69
2023-03-24T22:15:38.338Z,100215.31
2023-03-24T22:18:05.369Z,100127.00
2023-03-24T22:20:33.750Z,100190.72
2023-03-24T22:23:03.536Z,100212.59
2023-03-24T22:25:30.838Z,100203.25
2023-03-24T22:27:57.674Z,100197.41
2023-03-24T22:30:26.996Z,100212.13
2023-03-24T22:32:53.838Z,100197.38
2023-03-24T22:35:21.494Z,100203.78
2023-03-24T22:37:48.394Z,100148.56
2023-03-24T22:40:15.186Z,100213.47
2023-03-24T22:42:42.403Z,100137.16
2023-03-24T22:45:09.834Z,100173.56
2023-03-24T22:47:36.750Z,100140.72
2023-03-24T22:50:04.273Z,100189.50
2023-03-24T22:52:31.464Z,100128.13
2023-03-24T22:54:58.263Z,100128.94
2023-03-24T22:57:25.224Z,100207.25
2023-03-24T22:59:54.150Z,100201.91
2023-03-24T23:02:24.640Z,100167.78
2023-03-24T23:04:51.543Z,100213.91
2023-03-24T23:07:22.371Z,100159.59
2023-03-24T23:09:53.749Z,100211.25
2023-03-24T23:12:21.900Z,100154.31
2023-03-24T23:14:48.534Z,100174.53
2023-03-24T23:17:17.749Z,100181.97
2023-03-24T23:19:44.524Z,100235.19
2023-03-24T23:22:11.302Z,100234.88
2023-03-24T23:24:40.475Z,100225.69
2023-03-24T23:27:07.845Z,100165.88
2023-03-24T23:29:34.735Z,100226.38
2023-03-24T23:32:01.910Z,100233.03
2023-03-24T23:34:28.883Z,100163.31
2023-03-24T23:36:55.614Z,100165.88
2023-03-24T23:39:22.363Z,100169.97
2023-03-24T23:41:51.249Z,100230.81
2023-03-24T23:44:19.880Z,100168.28
2023-03-24T23:46:46.687Z,100224.50
2023-03-24T23:49:13.363Z,100219.94
2023-03-24T23:51:40.414Z,100167.94
2023-03-24T23:54:07.517Z,100199.09
2023-03-24T23:56:37.442Z,100219.94
2023-03-24T23:59:06.616Z,100212.75
